Time;durP1;ratioP1;P1;durP2;ratioP2;P2;SDS_P1;SDS_P2;PMS_P1;PMS_P2;Temp;Humidity;BMP_temperature;BMP_pressure;BME280_temperature;BME280_humidity;BME280_pressure;Samples;Min_cycle;Max_cycle;Signal;HPM_P1;HPM_P2
2023/03/28 00:00:42;;;;;;;12.10;2.60;;;;;;;2.42;73.72;102284.63;7391578;19;20555;-62
2023/03/28 00:03:08;;;;;;;18.40;2.55;;;;;;;2.32;74.14;102275.25;7390213;19;19995;-63
2023/03/28 00:05:50;;;;;;;11.05;2.30;;;;;;;2.24;74.55;102277.22;7387345;19;20007;-63
2023/03/28 00:08:16;;;;;;;10.23;1.92;;;;;;;2.17;74.34;102279.09;7390959;19;20011;-62
2023/03/28 00:10:43;;;;;;;14.85;2.65;;;;;;;2.14;74.75;102285.25;7390298;19;20443;-63
2023/03/28 00:13:10;;;;;;;12.52;2.47;;;;;;;2.17;74.61;102280.84;7387858;19;20007;-65
2023/03/28 00:15:40;;;;;;;13.23;1.98;;;;;;;2.17;74.55;102273.84;7388227;19;20003;-64
2023/03/28 00:18:10;;;;;;;13.23;2.35;;;;;;;2.12;74.67;102284.44;7390834;19;20010;-65
2023/03/28 00:20:42;;;;;;;15.25;2.10;;;;;;;2.07;74.75;102278.41;7391469;19;20010;-64
2023/03/28 00:23:10;;;;;;;8.40;1.83;;;;;;;2.03;74.83;102278.53;7390048;19;19998;-66
2023/03/28 00:25:39;;;;;;;11.50;1.85;;;;;;;2.06;74.66;102287.19;7388985;19;20007;-66
2023/03/28 00:28:05;;;;;;;14.48;2.60;;;;;;;2.11;74.43;102290.56;7392470;19;20477;-65
2023/03/28 00:30:30;;;;;;;19.90;3.95;;;;;;;2.08;74.57;102298.50;7389648;19;20036;-65
2023/03/28 00:32:56;;;;;;;12.77;4.45;;;;;;;2.09;74.41;102302.84;7382965;19;20010;-66
2023/03/28 00:35:22;;;;;;;18.00;5.40;;;;;;;2.13;74.75;102312.38;7387610;19;19995;-67
2023/03/28 00:37:49;;;;;;;19.67;4.93;;;;;;;2.19;74.79;102315.75;7386020;19;20015;-66
2023/03/28 00:40:15;;;;;;;13.65;3.75;;;;;;;2.25;74.43;102299.91;7388654;19;19999;-67
2023/03/28 00:42:41;;;;;;;15.57;3.35;;;;;;;2.18;74.03;102307.03;7388966;19;20479;-68
2023/03/28 00:45:11;;;;;;;15.88;3.53;;;;;;;2.25;73.85;102307.75;7388367;19;20010;-66
2023/03/28 00:47:44;;;;;;;13.57;3.83;;;;;;;2.14;74.04;102308.84;7390352;19;20015;-67
2023/03/28 00:50:18;;;;;;;13.90;3.95;;;;;;;2.13;73.84;102319.38;7390064;19;19999;-63
2023/03/28 00:53:07;;;;;;;17.38;4.00;;;;;;;2.21;73.81;102316.59;7385407;19;20022;-63
2023/03/28 00:55:43;;;;;;;16.40;4.20;;;;;;;2.24;73.50;102317.38;7388527;19;20006;-65
2023/03/28 00:58:11;;;;;;;14.68;4.70;;;;;;;2.17;74.50;102313.19;7393677;19;20014;-64
2023/03/28 01:00:40;;;;;;;14.73;3.97;;;;;;;2.19;74.53;102318.38;7396778;19;19999;-65
2023/03/28 01:03:06;;;;;;;13.90;3.53;;;;;;;2.20;74.74;102317.47;7395941;19;19995;-67
2023/03/28 01:05:34;;;;;;;14.43;4.63;;;;;;;2.22;74.66;102326.19;7394368;19;20006;-66
2023/03/28 01:08:06;;;;;;;16.52;4.60;;;;;;;2.24;74.72;102325.25;7396998;19;20015;-66
2023/03/28 01:10:32;;;;;;;14.25;5.00;;;;;;;2.23;74.61;102328.75;7396367;19;20009;-67
2023/03/28 01:13:00;;;;;;;19.02;5.63;;;;;;;2.19;74.84;102318.38;7392822;19;20006;-67
2023/03/28 01:15:28;;;;;;;16.38;3.60;;;;;;;2.22;74.82;102328.78;7393054;19;20454;-65
2023/03/28 01:17:56;;;;;;;13.98;3.50;;;;;;;2.25;74.54;102341.84;7395333;19;20474;-65
2023/03/28 01:20:51;;;;;;;16.42;4.05;;;;;;;2.24;74.65;102345.38;7396453;19;20006;-66
2023/03/28 01:23:38;;;;;;;11.88;3.67;;;;;;;2.27;74.29;102348.75;7393259;19;20018;-67
2023/03/28 01:26:18;;;;;;;15.95;5.60;;;;;;;2.22;74.44;102355.00;7393344;19;20384;-66
2023/03/28 01:29:17;;;;;;;17.58;6.97;;;;;;;2.21;74.76;102342.81;7395435;19;20005;-63
2023/03/28 01:31:55;;;;;;;18.42;7.18;;;;;;;2.17;74.92;102352.50;7393557;19;19998;-68
2023/03/28 01:34:32;;;;;;;12.50;4.68;;;;;;;2.16;74.34;102345.53;7393537;19;20002;-67
2023/03/28 01:37:16;;;;;;;14.20;4.13;;;;;;;2.13;74.46;102350.84;7395654;19;20006;-66
2023/03/28 01:40:21;;;;;;;17.60;4.00;;;;;;;2.18;74.84;102348.13;7396301;19;20024;-66
2023/03/28 01:43:09;;;;;;;18.60;4.32;;;;;;;2.17;74.61;102349.88;7392505;19;20030;-67
2023/03/28 01:45:49;;;;;;;16.52;5.20;;;;;;;2.15;74.67;102346.41;7394036;19;20026;-64
2023/03/28 01:48:24;;;;;;;16.55;4.43;;;;;;;2.12;75.06;102354.34;7395607;19;20078;-63
2023/03/28 01:51:10;;;;;;;14.80;4.50;;;;;;;2.11;75.10;102353.47;7394337;19;20003;-64
2023/03/28 01:53:56;;;;;;;13.27;3.40;;;;;;;2.07;75.78;102357.06;7392609;19;20003;-64
2023/03/28 01:56:52;;;;;;;14.73;3.28;;;;;;;2.07;75.35;102354.44;7392410;19;20007;-65
2023/03/28 01:59:23;;;;;;;10.85;3.13;;;;;;;2.06;75.27;102354.47;7392979;19;20092;-64
2023/03/28 02:02:02;;;;;;;11.57;3.00;;;;;;;2.05;75.31;102358.00;7392166;19;20002;-65
2023/03/28 02:04:32;;;;;;;10.07;2.00;;;;;;;2.00;74.94;102355.44;7395003;19;20015;-65
2023/03/28 02:06:58;;;;;;;7.32;2.10;;;;;;;2.04;74.81;102362.34;7391076;19;20014;-66
2023/03/28 02:09:25;;;;;;;14.02;3.55;;;;;;;2.06;74.71;102370.22;7392239;19;20002;-65
2023/03/28 02:12:03;;;;;;;12.57;4.68;;;;;;;2.17;75.13;102367.38;7392158;19;19998;-64
2023/03/28 02:14:36;;;;;;;10.73;3.85;;;;;;;2.10;74.50;102367.50;7394360;19;19998;-65
2023/03/28 02:17:08;;;;;;;8.60;2.35;;;;;;;2.08;74.23;102363.16;7393884;19;20002;-65
2023/03/28 02:19:36;;;;;;;9.68;2.03;;;;;;;2.05;74.23;102365.88;7393713;19;20537;-64
2023/03/28 02:22:15;;;;;;;9.60;2.85;;;;;;;2.14;73.94;102369.16;7394093;19;19995;-65
2023/03/28 02:24:41;;;;;;;11.65;3.53;;;;;;;2.15;74.19;102368.25;7392875;19;20003;-66
2023/03/28 02:27:07;;;;;;;12.57;3.90;;;;;;;2.07;74.84;102369.31;7396193;19;20003;-67
2023/03/28 02:29:36;;;;;;;10.80;3.15;;;;;;;2.08;74.73;102377.16;7393913;19;20003;-62
2023/03/28 02:32:02;;;;;;;10.52;3.20;;;;;;;2.11;74.81;102366.59;7390883;19;20007;-63
2023/03/28 02:34:27;;;;;;;14.48;3.55;;;;;;;2.10;75.15;102364.88;7394091;19;19995;-63
2023/03/28 02:37:11;;;;;;;13.88;3.83;;;;;;;1.99;75.78;102364.22;7389272;19;20009;-63
2023/03/28 02:40:09;;;;;;;16.13;3.15;;;;;;;1.99;75.80;102364.22;7393999;19;20025;-63
2023/03/28 02:42:34;;;;;;;13.85;3.88;;;;;;;1.98;75.64;102352.03;7393345;19;20017;-64
2023/03/28 02:45:18;;;;;;;13.00;3.50;;;;;;;2.01;75.53;102346.72;7392470;19;20002;-63
2023/03/28 02:48:20;;;;;;;12.00;3.42;;;;;;;2.02;76.07;102356.31;7387817;19;19999;-63
2023/03/28 02:50:47;;;;;;;12.90;2.90;;;;;;;2.01;75.75;102359.81;7393360;19;20002;-62
2023/03/28 02:53:31;;;;;;;12.60;2.90;;;;;;;2.06;75.70;102363.19;7392032;19;20011;-62
2023/03/28 02:56:05;;;;;;;16.33;3.33;;;;;;;2.13;75.49;102364.81;7390860;19;20080;-61
2023/03/28 02:58:39;;;;;;;12.82;3.17;;;;;;;2.20;75.92;102373.41;7392821;19;20335;-62
2023/03/28 03:01:06;;;;;;;14.25;3.40;;;;;;;2.17;75.71;102372.63;7392795;19;20015;-62
2023/03/28 03:03:35;;;;;;;12.93;3.15;;;;;;;2.20;75.57;102375.16;7391714;19;20449;-61
2023/03/28 03:06:05;;;;;;;10.23;3.70;;;;;;;2.26;75.52;102373.25;7390260;19;20002;-61
2023/03/28 03:08:31;;;;;;;18.60;5.95;;;;;;;2.24;75.30;102375.06;7392562;19;20006;-62
2023/03/28 03:10:57;;;;;;;17.73;6.00;;;;;;;2.24;75.52;102375.06;7392026;19;19999;-62
2023/03/28 03:13:23;;;;;;;17.38;4.65;;;;;;;2.25;75.42;102370.69;7391307;19;20002;-62
2023/03/28 03:15:49;;;;;;;16.58;5.40;;;;;;;2.26;75.14;102365.41;7390949;19;20002;-63
2023/03/28 03:18:15;;;;;;;18.70;7.57;;;;;;;2.20;75.19;102362.03;7389986;19;20023;-62
2023/03/28 03:20:44;;;;;;;19.80;7.03;;;;;;;2.19;75.20;102362.94;7391949;19;20505;-63
2023/03/28 03:23:20;;;;;;;27.15;7.38;;;;;;;2.15;75.34;102364.75;7389151;19;20651;-62
2023/03/28 03:25:45;;;;;;;19.88;4.78;;;;;;;2.15;75.25;102363.00;7390357;19;20014;-63
2023/03/28 03:28:11;;;;;;;18.98;4.93;;;;;;;2.17;74.82;102355.13;7392343;19;20086;-62
2023/03/28 03:30:37;;;;;;;13.98;4.50;;;;;;;2.19;74.80;102365.56;7391639;19;20024;-62
2023/03/28 03:33:04;;;;;;;19.15;4.05;;;;;;;2.19;74.59;102370.81;7388902;19;20006;-62
2023/03/28 03:35:33;;;;;;;12.40;3.20;;;;;;;2.15;74.50;102370.88;7389921;19;20021;-63
2023/03/28 03:37:59;;;;;;;14.43;3.65;;;;;;;2.11;74.75;102366.59;7392598;19;20006;-63
2023/03/28 03:40:25;;;;;;;12.07;3.00;;;;;;;2.06;74.75;102378.06;7390840;19;20003;-61
2023/03/28 03:42:51;;;;;;;11.40;2.15;;;;;;;2.07;74.57;102371.94;7390339;19;20010;-61
2023/03/28 03:45:17;;;;;;;17.90;3.25;;;;;;;2.05;74.41;102371.97;7389786;19;20036;-61
2023/03/28 03:47:43;;;;;;;8.88;2.30;;;;;;;2.06;74.26;102378.06;7391139;19;20006;-61
2023/03/28 03:50:09;;;;;;;11.68;2.40;;;;;;;2.07;74.06;102379.78;7391454;19;19999;-62
2023/03/28 03:52:35;;;;;;;14.55;3.35;;;;;;;2.10;73.99;102380.59;7390059;19;19998;-63
2023/03/28 03:55:01;;;;;;;9.40;2.47;;;;;;;2.17;73.76;102383.97;7389604;19;20030;-62
2023/03/28 03:57:26;;;;;;;10.57;2.60;;;;;;;2.14;73.76;102379.63;7388635;19;20002;-64
2023/03/28 03:59:52;;;;;;;12.30;2.40;;;;;;;2.10;74.18;102383.22;7386257;19;20034;-63
2023/03/28 04:02:18;;;;;;;10.40;1.42;;;;;;;1.98;74.57;102382.59;7392154;19;19998;-63
2023/03/28 04:04:44;;;;;;;7.05;1.50;;;;;;;1.99;74.75;102390.44;7386987;19;20062;-63
2023/03/28 04:07:11;;;;;;;5.60;1.40;;;;;;;1.97;74.95;102386.09;7388182;19;20006;-63
2023/03/28 04:09:37;;;;;;;5.93;1.25;;;;;;;2.01;75.20;102387.78;7387862;19;20007;-63
2023/03/28 04:12:04;;;;;;;8.85;1.85;;;;;;;2.02;75.36;102393.00;7381801;19;20078;-64
2023/03/28 04:14:30;;;;;;;10.07;2.17;;;;;;;1.89;75.76;102387.16;7389890;19;20344;-63
2023/03/28 04:16:56;;;;;;;17.23;1.92;;;;;;;1.90;76.00;102390.63;7387342;19;20002;-62
2023/03/28 04:19:23;;;;;;;10.65;1.77;;;;;;;1.85;76.39;102392.44;7389254;19;20470;-62
2023/03/28 04:21:51;;;;;;;12.52;1.85;;;;;;;1.84;76.23;102395.97;7388676;19;20006;-62
2023/03/28 04:24:23;;;;;;;12.00;2.13;;;;;;;1.85;76.37;102397.69;7389100;19;19999;-63
2023/03/28 04:26:54;;;;;;;15.15;2.50;;;;;;;1.85;76.86;102400.31;7386306;19;20003;-62
2023/03/28 04:29:24;;;;;;;12.80;2.35;;;;;;;1.90;76.60;102393.25;7389109;19;20006;-64
2023/03/28 04:31:49;;;;;;;13.20;2.17;;;;;;;1.87;76.51;102403.78;7390015;19;20007;-62
2023/03/28 04:34:18;;;;;;;12.57;3.03;;;;;;;1.88;76.50;102401.13;7397450;19;20126;-62
2023/03/28 04:36:44;;;;;;;13.55;2.30;;;;;;;1.82;76.35;102411.72;7393484;19;20174;-62
2023/03/28 04:39:10;;;;;;;12.73;2.15;;;;;;;1.82;76.58;102411.72;7395993;19;20022;-64
2023/03/28 04:41:35;;;;;;;9.13;2.08;;;;;;;1.80;76.83;102404.78;7397013;19;20010;-63
2023/03/28 04:44:01;;;;;;;13.27;2.35;;;;;;;1.87;76.52;102403.78;7395386;19;19998;-62
2023/03/28 04:46:30;;;;;;;11.45;2.22;;;;;;;1.91;76.46;102421.16;7392926;19;19991;-63
2023/03/28 04:48:55;;;;;;;10.98;1.90;;;;;;;1.96;76.51;102416.69;7394213;19;20050;-63
2023/03/28 04:51:21;;;;;;;11.95;2.58;;;;;;;1.98;76.42;102416.69;7395274;19;19995;-63
2023/03/28 04:53:47;;;;;;;11.45;2.35;;;;;;;2.01;76.51;102430.59;7394489;19;20003;-64
2023/03/28 04:56:12;;;;;;;10.05;2.10;;;;;;;1.98;76.65;102435.03;7394409;19;20002;-62
2023/03/28 04:58:40;;;;;;;14.50;2.70;;;;;;;2.00;76.45;102427.97;7394924;19;20007;-63
2023/03/28 05:01:09;;;;;;;11.98;2.10;;;;;;;1.98;76.60;102435.03;7400101;19;20007;-63
2023/03/28 05:03:35;;;;;;;10.82;2.20;;;;;;;2.04;76.18;102441.00;7394018;19;20006;-63
2023/03/28 05:06:01;;;;;;;9.90;2.13;;;;;;;1.95;76.38;102445.56;7392420;19;20006;-63
2023/03/28 05:08:27;;;;;;;12.75;2.28;;;;;;;1.98;76.38;102445.50;7393177;19;20569;-62
2023/03/28 05:10:54;;;;;;;15.70;3.00;;;;;;;2.10;75.59;102453.13;7394494;19;20010;-63
2023/03/28 05:13:20;;;;;;;10.85;2.97;;;;;;;2.12;75.61;102467.06;7394810;19;20022;-61
2023/03/28 05:15:47;;;;;;;11.25;2.70;;;;;;;2.18;75.45;102469.56;7392636;19;20025;-62
2023/03/28 05:18:14;;;;;;;12.60;3.00;;;;;;;2.21;75.53;102477.38;7394257;19;20010;-62
2023/03/28 05:20:40;;;;;;;13.27;3.00;;;;;;;2.24;75.41;102485.19;7394073;19;20478;-62
2023/03/28 05:23:06;;;;;;;13.75;3.20;;;;;;;2.35;74.95;102487.59;7394599;19;20021;-62
2023/03/28 05:25:32;;;;;;;13.30;3.40;;;;;;;2.41;75.14;102487.47;7391698;19;20077;-62
2023/03/28 05:27:57;;;;;;;12.88;2.83;;;;;;;2.40;74.87;102486.63;7396007;19;20035;-62
2023/03/28 05:30:23;;;;;;;10.30;2.70;;;;;;;2.35;75.36;102485.84;7397579;19;20003;-62
2023/03/28 05:32:48;;;;;;;16.88;3.40;;;;;;;2.43;75.51;102483.09;7395646;19;20081;-61
2023/03/28 05:35:15;;;;;;;16.85;4.05;;;;;;;2.48;75.30;102496.94;7392865;19;20002;-62
2023/03/28 05:37:41;;;;;;;13.18;3.10;;;;;;;2.38;75.28;102505.88;7394098;19;19998;-62
2023/03/28 05:40:11;;;;;;;14.60;3.40;;;;;;;2.27;75.51;102500.00;7394794;19;20002;-63
2023/03/28 05:42:38;;;;;;;17.27;2.53;;;;;;;2.32;75.33;102503.41;7392573;19;20070;-63
2023/03/28 05:45:05;;;;;;;11.95;2.00;;;;;;;2.33;75.06;102511.22;7390669;19;20070;-63
2023/03/28 05:47:31;;;;;;;10.23;2.00;;;;;;;2.27;75.33;102511.34;7394230;19;20006;-63
2023/03/28 05:49:57;;;;;;;10.43;2.38;;;;;;;2.31;74.87;102513.03;7394588;19;20006;-62
2023/03/28 05:52:22;;;;;;;9.73;2.40;;;;;;;2.24;75.23;102515.81;7391375;19;20007;-62
2023/03/28 05:54:48;;;;;;;10.25;2.35;;;;;;;2.30;74.70;102515.66;7392395;19;20011;-63
2023/03/28 05:57:14;;;;;;;10.63;2.40;;;;;;;2.23;74.90;102520.16;7394273;19;20084;-63
2023/03/28 05:59:39;;;;;;;10.60;2.70;;;;;;;2.27;74.82;102513.09;7396784;19;20002;-62
2023/03/28 06:02:10;;;;;;;13.18;2.95;;;;;;;2.34;74.75;102507.72;7394738;19;20478;-63
2023/03/28 06:04:36;;;;;;;12.05;2.08;;;;;;;2.35;74.42;102506.84;7392657;19;20346;-62
2023/03/28 06:07:02;;;;;;;15.65;2.60;;;;;;;2.37;74.42;102512.03;7391627;19;19998;-63
2023/03/28 06:09:30;;;;;;;14.82;3.08;;;;;;;2.42;74.48;102510.19;7390533;19;20351;-62
2023/03/28 06:11:57;;;;;;;14.20;2.47;;;;;;;2.32;74.56;102524.38;7390419;19;20448;-61
2023/03/28 06:14:22;;;;;;;13.48;2.85;;;;;;;2.34;74.90;102517.34;7390160;19;20472;-60
2023/03/28 06:16:48;;;;;;;14.75;3.30;;;;;;;2.35;75.12;102530.44;7387290;19;20054;-64
2023/03/28 06:19:14;;;;;;;15.70;3.17;;;;;;;2.45;74.97;102527.63;7390475;19;20009;-62
2023/03/28 06:21:39;;;;;;;13.68;3.17;;;;;;;2.52;75.03;102527.47;7389943;19;20038;-62
2023/03/28 06:24:05;;;;;;;13.40;3.47;;;;;;;2.55;75.32;102519.56;7390769;19;20012;-63
2023/03/28 06:26:30;;;;;;;18.33;4.07;;;;;;;2.68;74.52;102522.78;7388426;19;20087;-62
2023/03/28 06:28:56;;;;;;;16.42;4.82;;;;;;;2.73;74.33;102523.56;7392034;19;20069;-62
2023/03/28 06:31:22;;;;;;;17.17;4.57;;;;;;;2.57;74.52;102528.25;7391480;19;20333;-62
2023/03/28 06:33:47;;;;;;;17.20;5.57;;;;;;;2.59;74.79;102528.22;7390809;19;20012;-61
2023/03/28 06:36:13;;;;;;;18.25;4.93;;;;;;;2.59;74.46;102536.97;7387269;19;20050;-62
2023/03/28 06:38:38;;;;;;;18.83;5.60;;;;;;;2.53;75.13;102534.44;7389116;19;20002;-62
2023/03/28 06:41:04;;;;;;;17.48;4.97;;;;;;;2.52;74.85;102539.72;7390230;19;19997;-62
2023/03/28 06:43:30;;;;;;;20.42;5.75;;;;;;;2.48;75.64;102540.69;7390549;19;20014;-62
2023/03/28 06:45:56;;;;;;;17.55;4.78;;;;;;;2.49;75.40;102540.66;7387364;19;20062;-62
2023/03/28 06:48:22;;;;;;;20.52;4.30;;;;;;;2.51;74.96;102541.50;7391337;19;20048;-62
2023/03/28 06:50:54;;;;;;;11.68;3.45;;;;;;;2.60;74.96;102548.31;7388563;19;19994;-63
2023/03/28 06:53:19;;;;;;;13.90;3.28;;;;;;;2.58;74.66;102550.13;7389554;19;20467;-62
2023/03/28 06:55:45;;;;;;;14.82;3.63;;;;;;;2.60;74.64;102541.31;7385153;19;20002;-62
2023/03/28 06:58:10;;;;;;;15.55;4.03;;;;;;;2.60;74.83;102543.94;7388606;19;20463;-61
2023/03/28 07:00:37;;;;;;;14.23;3.42;;;;;;;2.63;74.52;102548.25;7387829;19;19999;-61
2023/03/28 07:03:02;;;;;;;15.77;3.30;;;;;;;2.60;74.67;102548.31;7389614;19;19995;-62
2023/03/28 07:05:28;;;;;;;14.60;3.10;;;;;;;2.59;74.23;102544.81;7389210;19;19999;-63
2023/03/28 07:08:00;;;;;;;18.63;3.50;;;;;;;2.66;74.42;102553.44;6891259;19;9750816;-63
2023/03/28 07:10:26;;;;;;;14.70;3.25;;;;;;;2.72;74.11;102555.06;7392835;19;20042;-63
2023/03/28 07:12:51;;;;;;;15.20;3.50;;;;;;;2.81;73.64;102547.03;7389401;19;20070;-63
2023/03/28 07:15:17;;;;;;;15.15;2.90;;;;;;;2.74;74.07;102553.28;7389245;19;20467;-61
2023/03/28 07:17:42;;;;;;;14.38;3.53;;;;;;;2.72;73.82;102545.44;7389644;19;20804;-61
2023/03/28 07:20:08;;;;;;;18.73;3.65;;;;;;;2.73;73.81;102559.41;7385887;19;20006;-61
2023/03/28 07:22:34;;;;;;;13.43;2.63;;;;;;;2.71;73.93;102562.09;7385140;19;20467;-62
2023/03/28 07:25:07;;;;;;;15.07;3.17;;;;;;;2.75;73.95;102571.63;7384369;19;20815;-58
2023/03/28 07:27:32;;;;;;;14.15;3.28;;;;;;;2.96;73.00;102578.22;7387953;19;20031;-58
2023/03/28 07:29:58;;;;;;;13.75;3.42;;;;;;;3.01;73.01;102578.97;7388043;19;19995;-58
2023/03/28 07:32:27;;;;;;;18.15;3.35;;;;;;;3.01;72.87;102578.97;7387563;19;20002;-58
2023/03/28 07:34:52;;;;;;;16.40;3.38;;;;;;;3.08;72.40;102580.56;7388462;19;20110;-58
2023/03/28 07:37:18;;;;;;;14.45;3.28;;;;;;;3.11;72.50;102579.63;7390012;19;20089;-57
2023/03/28 07:39:44;;;;;;;13.32;2.65;;;;;;;3.21;72.16;102582.94;7388331;19;20010;-57
2023/03/28 07:42:10;;;;;;;14.90;3.15;;;;;;;3.31;72.03;102582.69;7389428;19;19998;-59
2023/03/28 07:44:36;;;;;;;17.75;4.25;;;;;;;3.61;71.37;102582.91;7388223;19;20074;-59
2023/03/28 07:47:02;;;;;;;15.30;3.80;;;;;;;4.02;70.24;102588.94;7391285;19;19998;-57
2023/03/28 07:49:28;;;;;;;18.90;4.70;;;;;;;4.28;69.40;102588.28;7390212;19;20010;-58
2023/03/28 07:51:54;;;;;;;18.88;4.78;;;;;;;4.38;69.11;102596.81;7388462;19;20002;-58
2023/03/28 07:54:20;;;;;;;21.13;3.92;;;;;;;4.30;69.13;102589.97;7391743;19;20514;-58
2023/03/28 07:56:47;;;;;;;15.63;3.78;;;;;;;4.05;69.56;102592.34;7388573;19;19999;-59
2023/03/28 07:59:13;;;;;;;15.13;4.18;;;;;;;3.82;70.30;102592.88;7388426;19;20070;-58
2023/03/28 08:01:40;;;;;;;15.88;4.60;;;;;;;3.74;71.19;102586.09;7388227;19;20008;-58
2023/03/28 08:04:06;;;;;;;23.58;8.48;;;;;;;3.86;71.07;102580.53;7386719;19;20427;-57
2023/03/28 08:06:33;;;;;;;23.70;7.95;;;;;;;3.94;70.42;102578.59;7387343;19;19999;-58
2023/03/28 08:08:59;;;;;;;25.15;7.55;;;;;;;3.95;70.81;102582.94;7396327;19;20029;-58
2023/03/28 08:11:26;;;;;;;12.98;3.80;;;;;;;3.77;70.90;102576.38;7396265;19;20337;-59
2023/03/28 08:13:51;;;;;;;23.77;4.20;;;;;;;3.70;71.18;102581.81;7394352;19;20006;-58
2023/03/28 08:16:17;;;;;;;22.70;4.18;;;;;;;3.67;70.88;102579.25;7397740;19;19991;-58
2023/03/28 08:18:43;;;;;;;22.23;4.00;;;;;;;3.58;70.92;102585.59;7396561;19;19998;-58
2023/03/28 08:21:08;;;;;;;18.05;3.55;;;;;;;3.52;70.77;102581.31;7397841;19;19995;-58
2023/03/28 08:23:34;;;;;;;18.02;3.08;;;;;;;3.55;71.22;102586.50;7393710;19;20002;-58
2023/03/28 08:26:04;;;;;;;12.60;2.67;;;;;;;3.58;70.61;102588.22;7396993;19;20015;-58
2023/03/28 08:28:34;;;;;;;16.77;3.05;;;;;;;3.66;70.85;102577.53;7396024;19;20012;-58
2023/03/28 08:31:01;;;;;;;16.35;2.72;;;;;;;3.72;70.71;102593.13;7397899;19;19998;-58
2023/03/28 08:33:27;;;;;;;15.23;2.80;;;;;;;3.83;70.83;102589.34;7396749;19;20002;-58
2023/03/28 08:35:55;;;;;;;18.17;3.38;;;;;;;3.95;70.62;102589.97;7397361;19;20028;-58
2023/03/28 08:38:21;;;;;;;21.10;3.42;;;;;;;4.04;69.61;102592.41;7397313;19;20355;-57
2023/03/28 08:41:07;;;;;;;16.15;3.38;;;;;;;4.04;70.01;102600.28;7397757;19;20058;-58
2023/03/28 08:43:36;;;;;;;16.45;3.00;;;;;;;4.19;69.34;102599.91;7396959;19;20002;-58
2023/03/28 08:46:02;;;;;;;14.57;3.58;;;;;;;4.27;68.49;102600.56;7395294;19;19998;-58
2023/03/28 08:48:36;;;;;;;19.42;3.38;;;;;;;4.26;68.16;102597.97;7396497;19;19991;-58
2023/03/28 08:51:06;;;;;;;15.95;4.07;;;;;;;4.27;68.01;102592.66;7395688;19;19991;-58
2023/03/28 08:53:41;;;;;;;16.88;3.88;;;;;;;4.35;67.18;102600.38;7395994;19;20007;-59
2023/03/28 08:56:07;;;;;;;13.40;2.92;;;;;;;4.64;66.82;102601.34;7396860;19;19999;-58
2023/03/28 08:59:05;;;;;;;17.70;3.10;;;;;;;4.91;65.22;102591.84;7397926;19;20033;-59
2023/03/28 09:01:31;;;;;;;11.68;3.15;;;;;;;5.12;64.98;102599.09;7400014;19;20017;-58
2023/03/28 09:03:58;;;;;;;14.50;2.92;;;;;;;5.26;63.35;102596.06;7396134;19;20007;-59
2023/03/28 09:06:49;;;;;;;16.27;3.50;;;;;;;5.19;62.68;102598.00;7394103;19;20062;-59
2023/03/28 09:09:54;;;;;;;18.02;2.90;;;;;;;5.32;61.90;102596.69;7398223;19;20101;-59
2023/03/28 09:12:36;;;;;;;16.05;2.83;;;;;;;5.17;60.69;102594.53;7399527;19;20070;-62
2023/03/28 09:15:17;;;;;;;14.45;2.60;;;;;;;5.13;61.69;102594.69;7392808;19;20017;-59
2023/03/28 09:17:55;;;;;;;20.05;3.45;;;;;;;5.12;61.36;102592.97;7395852;19;20003;-60
2023/03/28 09:20:43;;;;;;;15.57;3.22;;;;;;;5.06;58.73;102591.38;7394760;19;19998;-59
2023/03/28 09:23:27;;;;;;;20.45;3.42;;;;;;;5.07;58.70;102590.47;7394985;19;20023;-59
2023/03/28 09:26:42;;;;;;;13.20;2.77;;;;;;;5.14;57.48;102596.44;7390841;19;20011;-59
2023/03/28 09:29:16;;;;;;;20.40;3.72;;;;;;;5.26;59.19;102591.63;7393338;19;20010;-59
2023/03/28 09:31:47;;;;;;;14.73;3.50;;;;;;;5.19;58.66;102594.50;7394270;19;20014;-59
2023/03/28 09:34:20;;;;;;;15.30;3.10;;;;;;;5.24;58.91;102592.59;7394586;19;20003;-59
2023/03/28 09:36:49;;;;;;;15.87;2.97;;;;;;;5.31;58.84;102591.50;7394534;19;20002;-60
2023/03/28 09:39:35;;;;;;;10.75;2.65;;;;;;;5.36;58.34;102589.56;7396295;19;20062;-59
2023/03/28 09:42:30;;;;;;;12.30;2.60;;;;;;;5.48;58.16;102586.59;7392937;19;20007;-59
2023/03/28 09:45:06;;;;;;;13.88;3.13;;;;;;;5.56;58.13;102597.75;7392004;19;20002;-59
2023/03/28 09:47:32;;;;;;;14.75;3.40;;;;;;;5.58;58.41;102592.41;7395653;19;20010;-59
2023/03/28 09:49:58;;;;;;;13.70;2.80;;;;;;;5.76;58.05;102593.59;7393727;19;20002;-59
2023/03/28 09:52:23;;;;;;;13.50;3.00;;;;;;;5.90;57.76;102588.75;7392761;19;20014;-59
2023/03/28 09:54:49;;;;;;;12.98;2.60;;;;;;;5.85;56.73;102589.81;7393056;19;19998;-59
2023/03/28 09:57:15;;;;;;;13.80;2.72;;;;;;;5.73;56.54;102591.91;7394275;19;20458;-58
2023/03/28 09:59:41;;;;;;;13.52;2.50;;;;;;;5.56;56.34;102589.84;7392784;19;20006;-57
2023/03/28 10:02:27;;;;;;;14.02;2.70;;;;;;;5.47;55.24;102597.16;7392062;19;20002;-58
2023/03/28 10:04:53;;;;;;;16.63;3.03;;;;;;;5.37;57.27;102593.97;7391780;19;20001;-58
2023/03/28 10:07:41;;;;;;;16.42;2.60;;;;;;;5.51;56.35;102594.38;7392716;19;19999;-58
2023/03/28 10:10:16;;;;;;;13.95;2.50;;;;;;;5.76;56.15;102596.25;7393000;19;20003;-57
2023/03/28 10:12:45;;;;;;;10.75;2.45;;;;;;;5.94;53.70;102593.00;7392130;19;20010;-57
2023/03/28 10:15:32;;;;;;;11.55;2.20;;;;;;;6.02;51.39;102598.03;7392424;19;20065;-58
2023/03/28 10:18:02;;;;;;;14.30;2.05;;;;;;;5.90;51.75;102588.75;7395154;19;20013;-58
2023/03/28 10:20:34;;;;;;;11.55;1.98;;;;;;;5.88;52.21;102592.34;7393681;19;20003;-58
2023/03/28 10:23:00;;;;;;;13.73;2.20;;;;;;;5.97;52.13;102595.53;7392330;19;20006;-58
2023/03/28 10:25:49;;;;;;;9.15;2.15;;;;;;;6.00;48.96;102590.16;7383191;19;20010;-58
2023/03/28 10:28:22;;;;;;;11.63;2.38;;;;;;;6.43;50.56;102585.22;7394457;19;19991;-58
2023/03/28 10:30:53;;;;;;;13.15;2.60;;;;;;;6.56;49.59;102581.25;7389766;19;20009;-57
2023/03/28 10:33:25;;;;;;;10.32;2.10;;;;;;;6.57;49.82;102587.38;7391024;19;19995;-58
2023/03/28 10:36:00;;;;;;;14.25;2.70;;;;;;;6.76;49.72;102578.72;7393779;19;20003;-57
2023/03/28 10:38:43;;;;;;;9.35;1.90;;;;;;;7.01;48.62;102575.19;7393852;19;19994;-58
2023/03/28 10:41:11;;;;;;;13.65;2.10;;;;;;;6.90;47.95;102587.94;7391133;19;20002;-58
2023/03/28 10:43:39;;;;;;;9.73;1.75;;;;;;;6.69;48.91;102577.22;7390265;19;20466;-58
2023/03/28 10:46:18;;;;;;;10.93;2.15;;;;;;;6.71;48.51;102579.81;7391815;19;20466;-58
2023/03/28 10:49:00;;;;;;;10.88;2.05;;;;;;;6.76;47.70;102578.72;7393498;19;20002;-58
2023/03/28 10:51:30;;;;;;;12.13;2.58;;;;;;;6.76;48.24;102578.72;7391039;19;20006;-59
2023/03/28 10:54:15;;;;;;;14.40;2.75;;;;;;;6.78;48.41;102571.63;7391956;19;20021;-58
2023/03/28 10:56:51;;;;;;;11.18;2.05;;;;;;;6.73;47.92;102567.41;7393341;19;19998;-59
2023/03/28 10:59:24;;;;;;;7.53;2.05;;;;;;;6.58;47.95;102571.47;7392637;19;20479;-59
2023/03/28 11:02:20;;;;;;;7.53;1.73;;;;;;;6.64;44.73;102565.97;7390745;19;19991;-58
2023/03/28 11:05:07;;;;;;;6.70;1.88;;;;;;;6.67;45.47;102565.00;7390888;19;20458;-59
2023/03/28 11:08:01;;;;;;;8.70;2.00;;;;;;;6.75;44.67;102563.81;7391053;19;20003;-58
2023/03/28 11:10:35;;;;;;;9.35;1.98;;;;;;;6.71;45.97;102562.19;7391265;19;20005;-58
2023/03/28 11:13:49;;;;;;;12.45;1.77;;;;;;;6.60;44.29;102560.88;7387846;19;20609;-59
2023/03/28 11:16:21;;;;;;;9.73;1.60;;;;;;;6.71;46.21;102570.13;7388843;19;20017;-58
2023/03/28 11:18:59;;;;;;;14.43;1.92;;;;;;;6.85;44.56;102569.59;7392659;19;20002;-59
2023/03/28 11:21:35;;;;;;;7.25;1.67;;;;;;;6.98;43.51;102565.59;7393408;19;19998;-59
2023/03/28 11:24:09;;;;;;;7.28;1.42;;;;;;;7.02;44.05;102563.69;7390686;19;20373;-59
2023/03/28 11:26:56;;;;;;;7.50;1.60;;;;;;;7.16;43.21;102556.09;7388455;19;20003;-59
2023/03/28 11:29:40;;;;;;;6.78;1.50;;;;;;;7.43;41.31;102562.09;7391652;19;20087;-59
2023/03/28 11:32:25;;;;;;;8.77;1.88;;;;;;;7.56;41.94;102556.28;7390970;19;20066;-60
2023/03/28 11:34:54;;;;;;;7.90;1.88;;;;;;;7.58;42.85;102557.97;7390682;19;20447;-59
2023/03/28 11:37:26;;;;;;;9.05;1.70;;;;;;;7.66;41.90;102555.00;7392173;19;20001;-58
2023/03/28 11:40:12;;;;;;;5.72;1.67;;;;;;;7.57;41.31;102558.00;7390193;19;20019;-59
2023/03/28 11:42:44;;;;;;;11.90;1.60;;;;;;;7.34;41.88;102553.66;7391482;19;20003;-58
2023/03/28 11:45:27;;;;;;;9.68;2.05;;;;;;;7.26;40.92;102561.88;7389472;19;20079;-59